createdAt,value
2018-06-09T00:01:08.356Z,77.79
2018-06-09T00:03:36.913Z,79.67
2018-06-09T00:06:05.455Z,85.02
2018-06-09T00:08:33.970Z,86.08
2018-06-09T00:11:02.396Z,87.70
2018-06-09T00:13:30.947Z,89.24
2018-06-09T00:15:59.656Z,90.70
2018-06-09T00:18:28.083Z,91.28
2018-06-09T00:20:56.540Z,91.30
2018-06-09T00:23:25.138Z,93.90
2018-06-09T00:25:53.787Z,93.58
2018-06-09T00:28:22.197Z,94.38
2018-06-09T00:30:50.760Z,95.10
2018-06-09T00:33:19.249Z,96.08
2018-06-09T00:35:47.685Z,97.47
2018-06-09T00:38:16.143Z,99.66
2018-06-09T00:40:44.711Z,100.00
2018-06-09T00:43:13.156Z,100.00
2018-06-09T00:45:41.579Z,100.00
2018-06-09T00:48:10.033Z,100.00
2018-06-09T00:50:38.452Z,100.00
2018-06-09T00:53:07.228Z,100.00
2018-06-09T00:55:35.672Z,100.00
2018-06-09T00:58:04.130Z,100.00
2018-06-09T01:00:32.626Z,100.00
2018-06-09T01:03:01.051Z,100.00
2018-06-09T01:05:29.503Z,100.00
2018-06-09T01:07:58.475Z,100.00
2018-06-09T01:10:26.906Z,100.00
2018-06-09T01:12:55.325Z,100.00
2018-06-09T01:15:23.803Z,100.00
2018-06-09T01:17:52.236Z,100.00
2018-06-09T01:20:20.724Z,100.00
2018-06-09T01:22:49.155Z,100.00
2018-06-09T01:25:17.619Z,100.00
2018-06-09T01:27:46.042Z,100.00
2018-06-09T01:30:14.473Z,100.00
2018-06-09T01:32:43.189Z,100.00
2018-06-09T01:35:11.618Z,100.00
2018-06-09T01:37:40.125Z,100.00
2018-06-09T01:40:08.576Z,100.00
2018-06-09T01:42:37.424Z,100.00
2018-06-09T01:45:05.859Z,100.00
2018-06-09T01:47:34.298Z,100.00
2018-06-09T01:50:03.078Z,100.00
2018-06-09T01:52:31.684Z,100.00
2018-06-09T01:55:00.133Z,100.00
2018-06-09T01:57:28.566Z,100.00
2018-06-09T01:59:57.047Z,100.00
2018-06-09T02:02:25.483Z,100.00
2018-06-09T02:04:54.010Z,100.00
2018-06-09T02:07:22.476Z,100.00
2018-06-09T02:09:50.955Z,100.00
2018-06-09T02:12:19.551Z,100.00
2018-06-09T02:14:47.978Z,100.00
2018-06-09T02:17:16.403Z,100.00
2018-06-09T02:19:44.855Z,100.00
2018-06-09T02:22:13.317Z,100.00
2018-06-09T02:24:41.764Z,100.00
2018-06-09T02:27:10.187Z,100.00
2018-06-09T02:29:38.606Z,100.00
2018-06-09T02:32:07.068Z,100.00
2018-06-09T02:34:35.467Z,100.00
2018-06-09T02:37:03.873Z,100.00
2018-06-09T02:39:32.923Z,100.00
2018-06-09T02:42:01.931Z,100.00
2018-06-09T02:44:30.460Z,100.00
2018-06-09T02:46:59.081Z,100.00
2018-06-09T02:49:27.518Z,100.00
2018-06-09T02:51:55.975Z,100.00
2018-06-09T02:54:24.403Z,100.00
2018-06-09T02:56:53.079Z,100.00
2018-06-09T02:59:21.522Z,100.00
2018-06-09T03:01:50.257Z,100.00
2018-06-09T03:04:18.716Z,100.00
2018-06-09T03:06:47.168Z,100.00
2018-06-09T03:09:15.808Z,100.00
2018-06-09T03:11:44.199Z,100.00
2018-06-09T03:14:12.678Z,100.00
2018-06-09T03:16:41.125Z,100.00
2018-06-09T03:19:09.632Z,100.00
2018-06-09T03:21:38.422Z,100.00
2018-06-09T03:25:36.650Z,100.00
2018-06-09T03:28:05.081Z,100.00
2018-06-09T03:30:33.479Z,100.00
2018-06-09T03:33:01.936Z,100.00
2018-06-09T03:35:30.688Z,100.00
2018-06-09T03:37:59.191Z,100.00
2018-06-09T03:40:27.659Z,100.00
2018-06-09T03:42:56.045Z,100.00
2018-06-09T03:45:24.507Z,100.00
2018-06-09T03:47:52.929Z,100.00
2018-06-09T03:50:21.388Z,100.00
2018-06-09T03:52:49.823Z,100.00
2018-06-09T03:55:18.280Z,100.00
2018-06-09T03:57:47.020Z,100.00
2018-06-09T04:00:15.423Z,100.00
2018-06-09T04:02:43.892Z,100.00
2018-06-09T04:05:12.521Z,100.00
2018-06-09T04:07:40.956Z,100.00
2018-06-09T04:10:09.412Z,100.00
2018-06-09T04:12:37.813Z,100.00
2018-06-09T04:15:06.302Z,100.00
2018-06-09T04:17:34.744Z,100.00
2018-06-09T04:20:03.211Z,100.00
2018-06-09T04:22:31.696Z,100.00
2018-06-09T04:25:01.092Z,100.00
2018-06-09T04:27:29.795Z,100.00
2018-06-09T04:29:58.972Z,100.00
2018-06-09T04:32:27.696Z,100.00
2018-06-09T04:34:56.413Z,100.00
2018-06-09T04:37:25.296Z,100.00
2018-06-09T04:39:53.756Z,100.00
2018-06-09T04:42:22.227Z,100.00
2018-06-09T04:44:50.665Z,100.00
2018-06-09T04:47:19.160Z,100.00
2018-06-09T04:49:47.615Z,100.00
2018-06-09T04:52:16.099Z,100.00
2018-06-09T04:54:44.493Z,100.00
2018-06-09T04:57:13.510Z,100.00
2018-06-09T04:59:41.922Z,100.00
2018-06-09T05:02:10.344Z,100.00
2018-06-09T05:04:38.761Z,100.00
2018-06-09T05:07:07.228Z,100.00
2018-06-09T05:09:35.741Z,100.00
2018-06-09T05:12:04.297Z,100.00
2018-06-09T05:14:32.962Z,100.00
2018-06-09T05:17:01.453Z,100.00
2018-06-09T05:19:29.892Z,100.00
2018-06-09T05:21:58.299Z,100.00
2018-06-09T05:24:27.103Z,100.00
2018-06-09T05:26:55.821Z,100.00
2018-06-09T05:29:24.341Z,100.00
2018-06-09T05:31:52.889Z,100.00
2018-06-09T05:34:21.304Z,100.00
2018-06-09T05:36:50.064Z,100.00
2018-06-09T05:39:18.759Z,100.00
2018-06-09T05:41:47.175Z,100.00
2018-06-09T05:44:15.606Z,100.00
2018-06-09T05:46:44.063Z,100.00
2018-06-09T05:49:12.487Z,100.00
2018-06-09T05:51:41.050Z,100.00
2018-06-09T05:54:09.585Z,100.00
2018-06-09T05:56:39.020Z,100.00
2018-06-09T05:59:07.472Z,100.00
2018-06-09T06:01:35.928Z,100.00
2018-06-09T06:04:04.380Z,100.00
2018-06-09T06:06:32.788Z,100.00
2018-06-09T06:09:01.279Z,100.00
2018-06-09T06:11:29.704Z,100.00
2018-06-09T06:13:58.259Z,100.00
2018-06-09T06:16:27.007Z,100.00
2018-06-09T06:18:55.539Z,100.00
2018-06-09T06:21:24.011Z,100.00
2018-06-09T06:26:19.885Z,100.00
2018-06-09T06:28:48.301Z,100.00
2018-06-09T06:31:16.797Z,100.00
2018-06-09T06:33:45.779Z,100.00
2018-06-09T06:36:14.211Z,100.00
2018-06-09T06:38:42.685Z,100.00
2018-06-09T06:41:11.292Z,99.60
2018-06-09T06:43:39.698Z,100.00
2018-06-09T06:46:08.367Z,100.00
2018-06-09T06:48:36.835Z,100.00
2018-06-09T06:51:05.339Z,98.26
2018-06-09T06:53:33.756Z,99.03
2018-06-09T06:56:02.199Z,96.50
2018-06-09T06:58:30.850Z,96.25
2018-06-09T07:00:59.278Z,96.51
2018-06-09T07:03:27.981Z,98.54
2018-06-09T07:05:56.419Z,94.91
2018-06-09T07:08:24.885Z,95.85
2018-06-09T07:10:53.340Z,93.77
2018-06-09T07:13:21.719Z,91.33
2018-06-09T07:15:50.476Z,94.75
2018-06-09T07:18:19.883Z,93.42
2018-06-09T07:20:48.362Z,93.76
2018-06-09T07:23:17.167Z,91.53
2018-06-09T07:25:45.599Z,89.50
2018-06-09T07:28:14.118Z,93.18
2018-06-09T07:30:42.753Z,92.56
2018-06-09T07:33:11.228Z,89.44
2018-06-09T07:35:39.627Z,91.29
2018-06-09T07:38:08.671Z,89.62
2018-06-09T07:40:37.344Z,88.77
2018-06-09T07:43:05.816Z,88.18
2018-06-09T07:45:34.319Z,89.78
2018-06-09T07:48:02.772Z,89.25
2018-06-09T07:50:31.179Z,89.95
2018-06-09T07:52:59.661Z,86.91
2018-06-09T07:55:28.092Z,87.60
2018-06-09T07:57:56.525Z,84.27
2018-06-09T08:00:25.000Z,85.43
2018-06-09T08:02:53.443Z,86.31
2018-06-09T08:05:21.912Z,85.02
2018-06-09T08:07:50.424Z,84.91
2018-06-09T08:10:18.865Z,85.87
2018-06-09T08:12:47.515Z,84.90
2018-06-09T08:15:15.952Z,83.23
2018-06-09T08:17:44.608Z,88.43
2018-06-09T08:20:13.096Z,85.80
2018-06-09T08:22:41.544Z,84.73
2018-06-09T08:25:09.952Z,83.95
2018-06-09T08:27:38.405Z,83.90
2018-06-09T08:30:07.136Z,82.30
2018-06-09T08:32:35.963Z,82.24
2018-06-09T08:35:04.534Z,82.75
2018-06-09T08:37:33.168Z,81.97
2018-06-09T08:40:01.605Z,80.51
2018-06-09T08:42:30.017Z,77.79
2018-06-09T08:44:58.805Z,78.73
2018-06-09T08:47:27.237Z,81.06
2018-06-09T08:49:55.667Z,81.60
2018-06-09T08:52:24.107Z,82.04
2018-06-09T08:54:52.567Z,81.23
2018-06-09T08:57:21.632Z,80.33
2018-06-09T08:59:50.026Z,78.91
2018-06-09T09:02:18.472Z,77.87
2018-06-09T09:04:46.957Z,79.30
2018-06-09T09:07:15.408Z,80.55
2018-06-09T09:09:44.184Z,79.62
2018-06-09T09:12:12.645Z,77.51
2018-06-09T09:14:41.039Z,78.24
2018-06-09T09:17:09.487Z,77.16
2018-06-09T09:19:37.940Z,77.75
2018-06-09T09:22:06.821Z,78.15
2018-06-09T09:24:35.290Z,74.30
2018-06-09T09:27:03.787Z,74.95
2018-06-09T09:29:32.216Z,71.48
2018-06-09T09:32:00.631Z,71.94
2018-06-09T09:34:29.203Z,73.35
2018-06-09T09:36:57.652Z,70.61
2018-06-09T09:39:26.092Z,70.10
2018-06-09T09:41:54.528Z,69.41
2018-06-09T09:44:22.964Z,68.41
2018-06-09T09:46:51.376Z,71.69
2018-06-09T09:49:19.897Z,68.71
2018-06-09T09:51:48.632Z,69.28
2018-06-09T09:54:17.058Z,71.26
2018-06-09T09:56:45.514Z,70.68
2018-06-09T09:59:14.083Z,68.64
2018-06-09T10:01:42.495Z,69.69
2018-06-09T10:04:10.971Z,68.10
2018-06-09T10:06:39.387Z,67.04
2018-06-09T10:09:08.770Z,65.95
2018-06-09T10:11:37.215Z,64.62
2018-06-09T10:14:05.627Z,65.09
2018-06-09T10:16:34.284Z,68.07
2018-06-09T10:19:02.683Z,64.92
2018-06-09T10:21:31.364Z,67.82
2018-06-09T10:23:59.789Z,68.89
2018-06-09T10:26:28.593Z,69.98
2018-06-09T10:28:57.027Z,68.74
2018-06-09T10:31:25.702Z,68.13
2018-06-09T10:33:54.134Z,68.80
2018-06-09T10:36:22.844Z,67.27
2018-06-09T10:38:51.312Z,67.37
2018-06-09T10:41:19.727Z,66.88
2018-06-09T10:43:48.273Z,67.27
2018-06-09T10:46:16.676Z,63.59
2018-06-09T10:48:45.075Z,63.61
2018-06-09T10:51:13.510Z,63.85
2018-06-09T10:53:41.960Z,64.71
2018-06-09T10:56:10.596Z,64.38
2018-06-09T10:58:39.321Z,62.29
2018-06-09T11:01:07.809Z,59.20
2018-06-09T11:03:36.247Z,60.86
2018-06-09T11:06:04.663Z,58.98
2018-06-09T11:08:33.104Z,61.47
2018-06-09T11:11:01.591Z,60.19
2018-06-09T11:13:30.188Z,60.43
2018-06-09T11:15:58.607Z,58.49
2018-06-09T11:18:26.991Z,57.03
2018-06-09T11:20:55.423Z,59.32
2018-06-09T11:23:23.836Z,62.49
2018-06-09T11:25:52.285Z,57.56
2018-06-09T11:28:20.759Z,59.13
2018-06-09T11:30:49.270Z,59.35
2018-06-09T11:33:17.675Z,58.70
2018-06-09T11:35:46.083Z,59.25
2018-06-09T11:38:14.503Z,63.31
2018-06-09T11:40:42.928Z,65.29
2018-06-09T11:43:11.306Z,53.88
2018-06-09T11:45:39.752Z,53.89
2018-06-09T11:48:08.195Z,53.66
2018-06-09T11:50:36.590Z,54.76
2018-06-09T11:53:05.074Z,58.03
2018-06-09T11:55:33.484Z,58.20
2018-06-09T11:58:02.295Z,58.70
2018-06-09T12:00:30.727Z,57.78
2018-06-09T12:02:59.131Z,58.14
2018-06-09T12:05:27.553Z,57.33
2018-06-09T12:07:55.966Z,53.46
2018-06-09T12:10:24.378Z,43.90
2018-06-09T12:12:52.800Z,43.38
2018-06-09T12:15:21.527Z,46.67
2018-06-09T12:17:49.956Z,43.16
2018-06-09T12:20:18.363Z,42.16
2018-06-09T12:22:46.783Z,46.80
2018-06-09T12:25:15.507Z,48.20
2018-06-09T12:27:43.905Z,43.69
2018-06-09T12:30:12.328Z,39.59
2018-06-09T12:32:40.724Z,39.64
2018-06-09T12:35:09.167Z,41.43
2018-06-09T12:37:37.548Z,40.35
2018-06-09T12:40:06.544Z,40.46
2018-06-09T12:42:34.948Z,39.87
2018-06-09T12:45:03.389Z,40.15
2018-06-09T12:47:31.813Z,42.24
2018-06-09T12:50:00.231Z,38.95
2018-06-09T12:52:28.644Z,35.61
2018-06-09T12:54:57.202Z,38.60
2018-06-09T12:57:25.599Z,40.52
2018-06-09T12:59:54.074Z,47.24
2018-06-09T13:02:22.597Z,41.55
2018-06-09T13:04:50.977Z,43.74
2018-06-09T13:07:19.689Z,48.09
2018-06-09T13:09:48.100Z,42.69
2018-06-09T13:12:16.492Z,42.19
2018-06-09T13:14:44.910Z,41.25
2018-06-09T13:17:13.294Z,44.11
2018-06-09T13:19:41.707Z,45.84
2018-06-09T13:22:10.270Z,45.94
2018-06-09T13:24:38.688Z,48.68
2018-06-09T13:27:07.150Z,49.58
2018-06-09T13:29:35.560Z,50.68
2018-06-09T13:32:03.963Z,48.53
2018-06-09T13:34:32.382Z,50.11
2018-06-09T13:37:00.782Z,51.70
2018-06-09T13:39:29.180Z,49.87
2018-06-09T13:41:57.648Z,50.71
2018-06-09T13:44:26.080Z,49.18
2018-06-09T13:46:54.710Z,52.51
2018-06-09T13:49:23.307Z,51.54
2018-06-09T13:51:52.075Z,46.61
2018-06-09T13:54:20.533Z,47.70
2018-06-09T13:56:48.976Z,44.21
2018-06-09T13:59:17.402Z,43.17
2018-06-09T14:01:45.831Z,47.34
2018-06-09T14:04:14.267Z,49.65
2018-06-09T14:06:42.721Z,39.09
2018-06-09T14:09:11.123Z,41.19
2018-06-09T14:11:39.515Z,43.53
2018-06-09T14:14:07.938Z,46.24
2018-06-09T14:16:36.362Z,45.00
2018-06-09T14:19:05.059Z,47.91
2018-06-09T14:21:33.494Z,45.67
2018-06-09T14:24:01.912Z,48.73
2018-06-09T14:26:30.652Z,51.66
2018-06-09T14:28:59.331Z,52.70
2018-06-09T14:31:27.844Z,49.51
2018-06-09T14:33:56.250Z,51.62
2018-06-09T14:36:24.651Z,45.60
2018-06-09T14:38:53.175Z,45.76
2018-06-09T14:41:21.681Z,48.93
2018-06-09T14:43:50.200Z,47.63
2018-06-09T14:46:18.628Z,53.29
2018-06-09T14:48:47.044Z,46.26
2018-06-09T14:51:15.455Z,48.10
2018-06-09T14:53:44.065Z,46.68
2018-06-09T14:56:12.553Z,47.13
2018-06-09T14:58:40.967Z,42.59
2018-06-09T15:01:09.426Z,43.68
2018-06-09T15:03:37.955Z,47.88
2018-06-09T15:06:06.379Z,45.23
2018-06-09T15:08:34.806Z,43.35
2018-06-09T15:11:03.257Z,52.06
2018-06-09T15:13:31.743Z,53.96
2018-06-09T15:16:00.299Z,54.03
2018-06-09T15:18:28.818Z,54.29
2018-06-09T15:20:57.251Z,55.35
2018-06-09T15:23:25.647Z,54.08
2018-06-09T15:25:54.376Z,52.82
2018-06-09T15:28:22.798Z,51.60
2018-06-09T15:30:51.207Z,53.30
2018-06-09T15:33:19.705Z,54.15
2018-06-09T15:35:48.147Z,57.07
2018-06-09T15:38:16.555Z,56.42
2018-06-09T15:40:44.940Z,57.66
2018-06-09T15:43:13.366Z,59.39
2018-06-09T15:45:41.738Z,60.69
2018-06-09T15:48:10.308Z,61.07
2018-06-09T15:50:38.704Z,63.32
2018-06-09T15:53:07.140Z,65.07
2018-06-09T15:55:35.551Z,64.70
2018-06-09T15:58:03.999Z,64.03
2018-06-09T16:00:32.441Z,63.05
2018-06-09T16:03:00.914Z,81.90
2018-06-09T16:05:29.348Z,100.00
2018-06-09T16:07:57.780Z,100.00
2018-06-09T16:10:26.224Z,100.00
2018-06-09T16:13:17.302Z,100.00
2018-06-09T16:16:20.553Z,100.00
2018-06-09T16:29:30.621Z,100.00
2018-06-09T16:31:59.050Z,100.00
2018-06-09T16:34:27.507Z,100.00
2018-06-09T16:36:55.976Z,100.00
2018-06-09T16:39:24.407Z,100.00
2018-06-09T16:41:52.892Z,100.00
2018-06-09T16:44:21.353Z,100.00
2018-06-09T16:46:49.772Z,100.00
2018-06-09T16:49:18.207Z,100.00
2018-06-09T16:51:46.606Z,100.00
2018-06-09T16:54:15.004Z,100.00
2018-06-09T16:56:43.427Z,100.00
2018-06-09T16:59:11.888Z,100.00
2018-06-09T17:01:40.376Z,100.00
2018-06-09T17:04:08.811Z,100.00
2018-06-09T17:06:37.207Z,100.00
2018-06-09T17:09:08.187Z,100.00
2018-06-09T17:11:36.796Z,100.00
2018-06-09T17:14:05.604Z,100.00
2018-06-09T17:16:34.093Z,100.00
2018-06-09T17:19:02.487Z,100.00
2018-06-09T17:21:30.891Z,100.00
2018-06-09T17:23:59.332Z,100.00
2018-06-09T17:26:27.788Z,100.00
2018-06-09T17:28:56.219Z,100.00
2018-06-09T17:31:24.606Z,100.00
2018-06-09T17:33:53.267Z,100.00
2018-06-09T17:36:21.699Z,100.00
2018-06-09T17:38:50.112Z,100.00
2018-06-09T17:41:18.594Z,100.00
2018-06-09T17:43:47.079Z,100.00
2018-06-09T17:46:15.578Z,100.00
2018-06-09T17:48:44.023Z,100.00
2018-06-09T17:51:12.451Z,100.00
2018-06-09T17:53:40.928Z,100.00
2018-06-09T17:56:09.357Z,100.00
2018-06-09T17:58:37.820Z,100.00
2018-06-09T18:01:06.247Z,100.00
2018-06-09T18:03:34.692Z,100.00
2018-06-09T18:06:03.163Z,100.00
2018-06-09T18:08:31.628Z,100.00
2018-06-09T18:11:00.064Z,100.00
2018-06-09T18:13:28.459Z,100.00
2018-06-09T18:15:56.940Z,100.00
2018-06-09T18:18:25.359Z,100.00
2018-06-09T18:20:53.816Z,100.00
2018-06-09T18:23:22.277Z,100.00
2018-06-09T18:25:50.699Z,100.00
2018-06-09T18:28:19.195Z,100.00
2018-06-09T18:30:47.639Z,100.00
2018-06-09T18:33:16.255Z,100.00
2018-06-09T18:35:44.717Z,100.00
2018-06-09T18:38:13.245Z,100.00
2018-06-09T18:40:41.709Z,100.00
2018-06-09T18:43:10.200Z,100.00
2018-06-09T18:45:38.662Z,100.00
2018-06-09T18:48:07.096Z,100.00
2018-06-09T18:50:35.520Z,100.00
2018-06-09T18:53:03.987Z,100.00
2018-06-09T18:55:32.435Z,100.00
2018-06-09T18:58:01.038Z,100.00
2018-06-09T19:00:29.486Z,100.00
2018-06-09T19:02:57.935Z,100.00
2018-06-09T19:05:26.353Z,100.00
2018-06-09T19:07:54.830Z,100.00
2018-06-09T19:10:23.516Z,100.00
2018-06-09T19:12:52.050Z,100.00
2018-06-09T19:15:20.480Z,100.00
2018-06-09T19:17:48.895Z,100.00
2018-06-09T19:20:17.299Z,100.00
2018-06-09T19:22:45.787Z,100.00
2018-06-09T19:25:14.187Z,100.00
2018-06-09T19:27:42.736Z,100.00
2018-06-09T19:30:11.487Z,100.00
2018-06-09T19:32:39.935Z,100.00
2018-06-09T19:35:08.600Z,100.00
2018-06-09T19:37:37.060Z,100.00
2018-06-09T19:40:05.641Z,100.00
2018-06-09T19:42:34.097Z,100.00
2018-06-09T19:45:02.516Z,100.00
2018-06-09T19:47:30.971Z,100.00
2018-06-09T19:49:59.436Z,100.00
2018-06-09T19:52:27.870Z,100.00
2018-06-09T19:54:56.310Z,100.00
2018-06-09T19:57:24.869Z,100.00
2018-06-09T19:59:53.447Z,100.00
2018-06-09T20:02:21.932Z,100.00
2018-06-09T20:04:50.391Z,100.00
2018-06-09T20:07:18.972Z,100.00
2018-06-09T20:09:47.391Z,100.00
2018-06-09T20:12:15.914Z,100.00
2018-06-09T20:14:44.379Z,100.00
2018-06-09T20:17:12.832Z,100.00
2018-06-09T20:19:41.630Z,100.00
2018-06-09T20:22:10.089Z,100.00
2018-06-09T20:24:38.499Z,100.00
2018-06-09T20:27:07.154Z,100.00
2018-06-09T20:29:35.591Z,100.00
2018-06-09T20:32:04.259Z,100.00
2018-06-09T20:34:32.806Z,100.00
2018-06-09T20:37:01.260Z,100.00
2018-06-09T20:39:30.204Z,100.00
2018-06-09T20:41:59.189Z,100.00
2018-06-09T20:44:27.636Z,100.00
2018-06-09T20:46:56.407Z,100.00
2018-06-09T20:49:25.215Z,100.00
2018-06-09T20:51:54.319Z,100.00
2018-06-09T20:54:23.147Z,100.00
2018-06-09T20:56:51.646Z,100.00
2018-06-09T20:59:20.111Z,100.00
2018-06-09T21:01:48.553Z,100.00
2018-06-09T21:04:17.090Z,100.00
2018-06-09T21:06:45.494Z,100.00
2018-06-09T21:09:13.955Z,100.00
2018-06-09T21:11:42.395Z,100.00
2018-06-09T21:14:10.867Z,100.00
2018-06-09T21:16:39.311Z,100.00
2018-06-09T21:19:07.755Z,100.00
2018-06-09T21:21:36.203Z,100.00
2018-06-09T21:24:04.674Z,100.00
2018-06-09T21:26:38.654Z,100.00
2018-06-09T21:29:12.300Z,100.00
2018-06-09T21:31:44.089Z,100.00
2018-06-09T21:34:28.929Z,100.00
2018-06-09T21:37:01.512Z,100.00
2018-06-09T21:39:35.200Z,100.00
2018-06-09T21:42:09.015Z,100.00
2018-06-09T21:44:37.870Z,100.00
2018-06-09T21:47:06.412Z,100.00
2018-06-09T21:49:34.927Z,100.00
2018-06-09T21:52:03.348Z,100.00
2018-06-09T21:54:31.952Z,100.00
2018-06-09T21:57:00.471Z,100.00
2018-06-09T21:59:29.072Z,100.00
2018-06-09T22:01:57.504Z,100.00
2018-06-09T22:04:25.947Z,100.00
2018-06-09T22:06:54.360Z,100.00
2018-06-09T22:09:22.807Z,100.00
2018-06-09T22:11:51.220Z,100.00
2018-06-09T22:14:19.656Z,100.00
2018-06-09T22:16:48.099Z,100.00
2018-06-09T22:19:16.545Z,100.00
2018-06-09T22:21:45.023Z,100.00
2018-06-09T22:24:13.462Z,100.00
2018-06-09T22:26:42.206Z,100.00
2018-06-09T22:29:10.898Z,100.00
2018-06-09T22:31:39.312Z,100.00
2018-06-09T22:34:07.731Z,100.00
2018-06-09T22:36:36.154Z,100.00
2018-06-09T22:39:07.260Z,100.00
2018-06-09T22:41:35.952Z,100.00
2018-06-09T22:44:04.412Z,100.00
2018-06-09T22:46:32.951Z,100.00
2018-06-09T22:49:01.388Z,100.00
2018-06-09T22:51:29.830Z,100.00
2018-06-09T22:53:58.257Z,100.00
2018-06-09T22:56:26.659Z,100.00
2018-06-09T22:58:55.239Z,100.00
2018-06-09T23:01:23.711Z,100.00
2018-06-09T23:03:52.552Z,100.00
2018-06-09T23:06:20.988Z,100.00
2018-06-09T23:08:49.606Z,100.00
2018-06-09T23:11:18.055Z,100.00
2018-06-09T23:13:46.509Z,100.00
2018-06-09T23:16:14.980Z,100.00
2018-06-09T23:18:43.391Z,100.00
2018-06-09T23:21:11.822Z,100.00
2018-06-09T23:23:40.346Z,100.00
2018-06-09T23:26:08.735Z,100.00
2018-06-09T23:28:37.151Z,100.00
2018-06-09T23:31:05.742Z,100.00
2018-06-09T23:33:34.158Z,100.00
2018-06-09T23:36:02.704Z,100.00
2018-06-09T23:38:31.118Z,100.00
2018-06-09T23:40:59.578Z,100.00
2018-06-09T23:43:28.112Z,100.00
2018-06-09T23:45:56.898Z,100.00
2018-06-09T23:48:25.308Z,100.00
2018-06-09T23:50:53.743Z,100.00
2018-06-09T23:53:22.227Z,100.00
2018-06-09T23:55:50.663Z,100.00
2018-06-09T23:58:19.123Z,100.00
